Time;durP1;ratioP1;P1;durP2;ratioP2;P2;SDS_P1;SDS_P2;PMS_P1;PMS_P2;Temp;Humidity;BMP_temperature;BMP_pressure;BME280_temperature;BME280_humidity;BME280_pressure;Samples;Min_cycle;Max_cycle;Signal;HPM_P1;HPM_P2
2022/06/08 00:00:24;;;;;;;;;;;21.00;60.20;;;;;;20998145;28;20370;-75
2022/06/08 00:10:25;;;;;;;;;;;21.10;60.30;;;;;;21005112;28;19916;-76
2022/06/08 00:20:25;;;;;;;;;;;21.00;60.30;;;;;;20991334;28;20417;-76
2022/06/08 00:30:26;;;;;;;;;;;21.00;60.30;;;;;;20957636;28;19927;-78
2022/06/08 00:40:45;;;;;;;;;;;21.00;60.30;;;;;;20982379;28;19958;-76
2022/06/08 00:50:47;;;;;;;;;;;21.00;60.40;;;;;;20974174;28;19916;-75
2022/06/08 01:00:48;;;;;;;;;;;20.90;60.30;;;;;;20978925;28;19986;-76
2022/06/08 01:10:49;;;;;;;;;;;20.90;60.40;;;;;;20978994;28;19916;-75
2022/06/08 01:20:54;;;;;;;;;;;20.90;60.40;;;;;;20992353;28;20005;-75
2022/06/08 01:31:02;;;;;;;;;;;20.90;60.40;;;;;;20979743;28;19943;-77
2022/06/08 01:41:02;;;;;;;;;;;20.80;60.40;;;;;;20982356;28;19912;-76
2022/06/08 01:51:07;;;;;;;;;;;20.90;60.50;;;;;;20992653;28;20355;-75
2022/06/08 02:01:12;;;;;;;;;;;20.80;60.40;;;;;;20989476;28;20470;-75
2022/06/08 02:11:18;;;;;;;;;;;20.80;60.40;;;;;;20988359;28;20327;-75
2022/06/08 02:21:27;;;;;;;;;;;20.80;60.40;;;;;;21001016;28;19936;-75
2022/06/08 02:31:35;;;;;;;;;;;20.80;60.40;;;;;;20986063;28;20294;-75
2022/06/08 02:41:39;;;;;;;;;;;20.80;60.40;;;;;;21003957;28;19923;-76
2022/06/08 02:51:43;;;;;;;;;;;20.60;60.30;;;;;;21003776;28;19915;-78
2022/06/08 03:01:45;;;;;;;;;;;20.70;60.30;;;;;;20988808;28;19920;-76
2022/06/08 03:11:47;;;;;;;;;;;20.70;60.30;;;;;;20998006;28;19932;-76
2022/06/08 03:21:48;;;;;;;;;;;20.70;60.40;;;;;;21011637;28;20019;-76
2022/06/08 03:31:49;;;;;;;;;;;20.70;60.40;;;;;;20965841;28;20389;-77
2022/06/08 03:41:50;;;;;;;;;;;20.70;60.30;;;;;;20984273;28;19923;-76
2022/06/08 03:51:51;;;;;;;;;;;20.60;60.30;;;;;;20985632;28;19920;-75
2022/06/08 04:01:53;;;;;;;;;;;20.70;60.30;;;;;;21010154;28;19920;-77
2022/06/08 04:11:53;;;;;;;;;;;20.60;60.30;;;;;;20995125;28;19923;-76
2022/06/08 04:21:54;;;;;;;;;;;20.50;60.20;;;;;;20996148;28;20007;-77
2022/06/08 04:31:55;;;;;;;;;;;20.60;60.30;;;;;;20973097;28;20405;-75
2022/06/08 04:42:00;;;;;;;;;;;20.60;60.30;;;;;;21009538;28;19923;-87
2022/06/08 04:52:06;;;;;;;;;;;20.60;60.30;;;;;;20970673;28;19963;-76
2022/06/08 05:02:09;;;;;;;;;;;20.60;60.30;;;;;;20953112;28;20197;-74
2022/06/08 05:12:10;;;;;;;;;;;20.60;60.30;;;;;;20993799;28;19919;-78
2022/06/08 05:22:11;;;;;;;;;;;20.60;60.30;;;;;;21003178;28;19960;-79
2022/06/08 05:32:12;;;;;;;;;;;20.60;60.40;;;;;;20961628;28;19966;-78
2022/06/08 05:42:14;;;;;;;;;;;20.60;60.40;;;;;;21038914;28;19912;-80
2022/06/08 05:52:17;;;;;;;;;;;20.60;60.40;;;;;;20982475;28;20018;-79
2022/06/08 06:02:19;;;;;;;;;;;20.60;60.40;;;;;;20977954;28;19920;-80
2022/06/08 06:12:21;;;;;;;;;;;20.50;60.40;;;;;;20999638;28;19927;-80
2022/06/08 06:22:22;;;;;;;;;;;20.60;60.50;;;;;;20985263;28;19916;-80
2022/06/08 06:32:34;;;;;;;;;;;20.60;60.50;;;;;;20991409;28;19924;-81
2022/06/08 06:42:36;;;;;;;;;;;20.60;60.60;;;;;;20982552;28;19938;-80
2022/06/08 06:52:59;;;;;;;;;;;20.60;60.60;;;;;;20963660;28;19916;-79
2022/06/08 07:03:00;;;;;;;;;;;20.70;60.60;;;;;;21003027;28;19920;-79
2022/06/08 07:13:01;;;;;;;;;;;20.60;60.60;;;;;;20992081;28;20401;-79
2022/06/08 07:23:02;;;;;;;;;;;20.50;60.60;;;;;;20978548;28;19916;-79
2022/06/08 07:33:03;;;;;;;;;;;20.60;60.70;;;;;;21317200;23;20350;-79
2022/06/08 07:43:03;;;;;;;;;;;20.60;60.80;;;;;;21004934;28;20023;-79
2022/06/08 07:53:04;;;;;;;;;;;20.60;60.80;;;;;;21047124;28;20289;-79
2022/06/08 08:03:06;;;;;;;;;;;20.60;61.00;;;;;;21044743;28;21612;-79
2022/06/08 08:13:10;;;;;;;;;;;20.60;61.20;;;;;;21026832;28;19942;-80
2022/06/08 08:23:10;;;;;;;;;;;20.60;61.30;;;;;;21037346;28;20370;-79
2022/06/08 08:33:11;;;;;;;;;;;20.60;61.60;;;;;;20998146;28;19970;-78
2022/06/08 08:43:12;;;;;;;;;;;20.60;61.90;;;;;;21018898;28;19913;-78
2022/06/08 08:53:21;;;;;;;;;;;20.60;61.90;;;;;;21060005;28;19924;-79
2022/06/08 09:03:23;;;;;;;;;;;20.60;61.80;;;;;;21024094;28;19926;-79
2022/06/08 09:13:31;;;;;;;;;;;20.70;61.80;;;;;;21030534;28;20000;-78
2022/06/08 09:23:38;;;;;;;;;;;20.70;61.90;;;;;;21054508;28;20518;-79
2022/06/08 09:33:39;;;;;;;;;;;20.70;62.10;;;;;;21045176;28;19924;-78
2022/06/08 09:43:49;;;;;;;;;;;20.70;62.30;;;;;;21031177;28;19917;-78
2022/06/08 09:53:52;;;;;;;;;;;20.70;62.30;;;;;;21030692;28;19922;-78
2022/06/08 10:04:02;;;;;;;;;;;20.70;62.30;;;;;;21005522;28;19916;-80
2022/06/08 10:14:12;;;;;;;;;;;20.80;62.30;;;;;;21039647;28;20011;-79
2022/06/08 10:24:17;;;;;;;;;;;20.80;62.10;;;;;;21056767;28;19995;-79
2022/06/08 10:34:19;;;;;;;;;;;20.80;62.10;;;;;;21009241;28;19959;-80
2022/06/08 10:44:33;;;;;;;;;;;20.80;62.00;;;;;;21006335;28;20328;-79
2022/06/08 10:54:53;;;;;;;;;;;20.80;61.90;;;;;;21058324;28;19916;-84
2022/06/08 11:04:56;;;;;;;;;;;20.80;61.80;;;;;;21068152;28;19916;-80
2022/06/08 11:14:58;;;;;;;;;;;20.80;61.70;;;;;;21063686;28;20003;-78
2022/06/08 11:25:01;;;;;;;;;;;20.80;61.80;;;;;;21068492;28;19920;-78
2022/06/08 11:35:01;;;;;;;;;;;20.80;61.80;;;;;;21051243;28;19920;-80
2022/06/08 11:45:07;;;;;;;;;;;20.80;61.70;;;;;;21056786;28;19916;-79
2022/06/08 11:55:08;;;;;;;;;;;20.90;61.60;;;;;;21038814;28;19916;-79
2022/06/08 12:05:10;;;;;;;;;;;20.90;61.50;;;;;;21040217;28;19926;-80
2022/06/08 12:15:29;;;;;;;;;;;20.90;61.40;;;;;;21001069;28;19916;-77
2022/06/08 12:25:30;;;;;;;;;;;20.90;61.20;;;;;;21009035;28;19966;-78
2022/06/08 12:35:32;;;;;;;;;;;20.90;61.10;;;;;;21027720;28;19916;-77
2022/06/08 12:45:33;;;;;;;;;;;20.90;61.00;;;;;;21038252;28;19948;-78
2022/06/08 12:55:36;;;;;;;;;;;21.00;61.00;;;;;;20988731;28;19927;-77
2022/06/08 13:05:38;;;;;;;;;;;21.00;60.90;;;;;;21040132;28;20259;-80
2022/06/08 13:15:39;;;;;;;;;;;21.00;60.70;;;;;;20991937;28;20011;-77
2022/06/08 13:25:40;;;;;;;;;;;21.00;60.70;;;;;;21027744;28;20326;-72
2022/06/08 13:35:40;;;;;;;;;;;21.10;60.60;;;;;;21050004;28;19912;-73
2022/06/08 13:45:44;;;;;;;;;;;21.10;60.50;;;;;;21007940;28;19916;-73
2022/06/08 13:55:46;;;;;;;;;;;21.20;60.40;;;;;;21012890;28;19928;-72
2022/06/08 14:16:05;;;;;;;;;;;21.30;60.20;;;;;;21024392;28;19916;-73
2022/06/08 14:26:06;;;;;;;;;;;21.30;60.10;;;;;;21035322;28;20291;-73
2022/06/08 14:36:10;;;;;;;;;;;21.30;60.00;;;;;;21052721;28;19913;-74
2022/06/08 14:46:14;;;;;;;;;;;21.40;60.00;;;;;;20999668;28;20281;-75
2022/06/08 14:56:24;;;;;;;;;;;21.40;60.10;;;;;;21037937;28;20003;-78
2022/06/08 15:06:25;;;;;;;;;;;21.30;60.10;;;;;;21035894;28;20271;-79
2022/06/08 15:16:25;;;;;;;;;;;21.30;60.20;;;;;;21015147;28;19917;-75
2022/06/08 15:26:26;;;;;;;;;;;21.30;60.30;;;;;;20994024;28;20607;-83
2022/06/08 15:36:26;;;;;;;;;;;21.30;60.30;;;;;;21057175;28;20358;-77
2022/06/08 15:46:27;;;;;;;;;;;21.20;60.30;;;;;;21030092;28;19920;-79
2022/06/08 15:56:29;;;;;;;;;;;21.20;60.20;;;;;;21000107;28;19920;-78
2022/06/08 16:06:31;;;;;;;;;;;21.30;60.20;;;;;;21008509;28;19916;-76
2022/06/08 16:16:31;;;;;;;;;;;21.30;60.30;;;;;;21039331;28;19916;-76
2022/06/08 16:26:32;;;;;;;;;;;21.30;60.50;;;;;;21037124;28;20361;-76
2022/06/08 16:36:33;;;;;;;;;;;21.30;60.70;;;;;;21026595;28;19919;-75
2022/06/08 16:46:35;;;;;;;;;;;21.30;60.80;;;;;;21025039;28;20376;-75
2022/06/08 17:06:55;;;;;;;;;;;21.30;60.30;;;;;;21041042;28;19920;-75
2022/06/08 17:16:55;;;;;;;;;;;21.30;60.30;;;;;;21050526;28;20415;-75
2022/06/08 17:26:56;;;;;;;;;;;21.30;60.30;;;;;;21051953;28;19981;-75
2022/06/08 17:36:58;;;;;;;;;;;21.30;60.30;;;;;;21035407;28;20354;-79
2022/06/08 17:47:00;;;;;;;;;;;21.30;60.40;;;;;;21071327;28;19923;-79
2022/06/08 17:57:00;;;;;;;;;;;21.20;60.40;;;;;;21056445;28;19916;-79
2022/06/08 18:07:01;;;;;;;;;;;21.20;60.40;;;;;;21070826;28;20060;-77
2022/06/08 18:17:02;;;;;;;;;;;21.20;60.50;;;;;;21069493;28;19917;-79
2022/06/08 18:27:07;;;;;;;;;;;21.20;60.60;;;;;;21032748;28;19921;-78
2022/06/08 18:37:14;;;;;;;;;;;21.20;60.70;;;;;;21021404;28;19966;-78
2022/06/08 18:47:15;;;;;;;;;;;21.20;60.70;;;;;;21082339;28;19916;-78
2022/06/08 18:57:15;;;;;;;;;;;21.10;60.70;;;;;;21068177;28;19960;-79
2022/06/08 19:07:18;;;;;;;;;;;21.10;60.80;;;;;;21066565;28;19923;-79
2022/06/08 19:17:18;;;;;;;;;;;21.10;60.90;;;;;;21081750;28;19916;-79
2022/06/08 19:27:19;;;;;;;;;;;21.10;61.00;;;;;;21046959;28;19942;-80
2022/06/08 19:37:20;;;;;;;;;;;21.10;61.00;;;;;;21055303;28;19919;-79
2022/06/08 19:47:21;;;;;;;;;;;21.00;61.00;;;;;;21045265;28;19920;-80
2022/06/08 19:57:21;;;;;;;;;;;20.90;61.00;;;;;;21078082;28;19969;-79
2022/06/08 20:07:22;;;;;;;;;;;21.00;61.10;;;;;;21061665;28;20359;-78
2022/06/08 20:17:24;;;;;;;;;;;21.00;61.10;;;;;;21028633;28;19970;-79
2022/06/08 20:27:24;;;;;;;;;;;21.00;61.20;;;;;;21003336;28;19920;-78
2022/06/08 20:37:25;;;;;;;;;;;21.00;61.30;;;;;;21070065;28;19912;-79
2022/06/08 20:47:25;;;;;;;;;;;21.00;61.30;;;;;;20962201;28;20370;-79
2022/06/08 20:57:26;;;;;;;;;;;21.00;61.40;;;;;;20989465;28;19930;-79
2022/06/08 21:07:27;;;;;;;;;;;21.00;61.50;;;;;;21023707;28;20265;-79
2022/06/08 21:17:28;;;;;;;;;;;21.00;61.50;;;;;;21075856;28;19920;-80
2022/06/08 21:27:28;;;;;;;;;;;21.00;61.60;;;;;;21065662;28;20343;-79
2022/06/08 21:37:29;;;;;;;;;;;21.00;61.60;;;;;;20992166;28;19923;-80
2022/06/08 21:47:29;;;;;;;;;;;21.00;61.70;;;;;;20991140;28;19916;-79
2022/06/08 21:57:30;;;;;;;;;;;21.00;61.70;;;;;;21053456;28;19916;-78
2022/06/08 22:07:30;;;;;;;;;;;21.00;61.80;;;;;;21072254;28;19923;-78
2022/06/08 22:17:31;;;;;;;;;;;21.00;61.80;;;;;;21081512;28;19916;-79
2022/06/08 22:27:32;;;;;;;;;;;20.90;61.80;;;;;;21031996;28;19924;-77
2022/06/08 22:37:32;;;;;;;;;;;20.90;61.80;;;;;;21055772;28;19938;-79
2022/06/08 22:47:33;;;;;;;;;;;20.90;61.80;;;;;;21073371;28;20358;-76
2022/06/08 22:57:33;;;;;;;;;;;20.90;61.80;;;;;;21069776;28;19916;-77
2022/06/08 23:07:34;;;;;;;;;;;20.90;61.80;;;;;;21052263;28;19942;-76
2022/06/08 23:27:53;;;;;;;;;;;20.90;61.90;;;;;;20996438;28;19988;-76
2022/06/08 23:37:54;;;;;;;;;;;20.90;61.90;;;;;;21034602;28;19997;-76
2022/06/08 23:47:55;;;;;;;;;;;20.90;62.00;;;;;;20980144;28;19917;-77
2022/06/08 23:57:56;;;;;;;;;;;20.90;62.00;;;;;;20978674;28;19916;-76
